Etusivu
METAR-TAF:

METAR-TAF

Lentoasemat :

Chongqing Jiangbein kansainvälinen lentoasema

Chongqing, Kiina

Leveyspiiri: 29-31N, Pituuspiiri: 106-29E, korkeus merenpinnasta: 351 m

Tämänhetkinen sää

Tämä raportti tehtiin 57 minuuttia sitten, kello 19.00 UTC
tyyntä
Lämpötila 10°C
Kosteus 93%
Ilmanpaine 1028 hPa
Näkyvyys: 2800 m
Muutamia pilviä 600 ft:n korkeudessa
utua

METAR: ZUCK 211900Z 00000MPS 2800 BR FEW006 10/09 Q1028 NOSIG

Aika: 03:57 (19:57 UTC)

Sääennuste

Tämä raportti tehtiin 4 tuntia ja 55 minuuttia sitten, kello 15.02 UTC
Ennuste voimassa 21. päivästä klo 18 UTC - 22. päivään klo 18 UTC
Tuuli 6 kn idästä/kaakosta
Näkyvyys: 2400 m
Hajanaisia pilviä 2000 ft:n korkeudessa
Pilvistä 5000 ft:n korkeudessa
utua
Tulossa
22. päivästä klo 01 UTC - 22. päivään klo 02 UTC
Näkyvyys: 3500 m
Hajanaisia pilviä 3000 ft:n korkeudessa

TAF: ZUCK 211502Z 2118/2218 12003MPS 2400 BR SCT020 OVC050 TX14/2208Z TN08/2122Z BECMG 2201/2202 3500 SCT030

Säähavainnot ja -ennusteet yli 4000 lentoasemalta (METAR- ja TAF-raportit).

Käytössä olevat sääasemat on merkitty karttaan keltaisilla ja punaisilla pisteillä.

Aseta hiiri pisteen päälle nähdäksesi sääaseman nimen.

Klikkaa sitten nähdäksesi säähavainnot ja -ennusteet.

Kartan vaihtaminen: klikkaa mustalla rastilla varustettuja vihreitä pisteitä, niin voit zoomata sisään; viivalla varustettua vihreää pistettä, niin voit zoomata ulos tai vihreitä nuolia, niin pääset viereisille kartoille.


METAR-TAF: